Telemetry
Timestamp Node Air Util TX Channel Util Battery Uptime Voltage Current Barometric Pressure Relative Humidity Temperature Gas Resistance
2026-05-07 12:52:41 ah01 1.37% 1.8% 94% 48582 4.12 V
2026-05-07 12:52:41 ah01 1.37% 1.8% 94% 48582 4.12 V
2026-05-07 12:52:41 ah01 1.37% 1.8% 94% 48582 4.12 V
2026-05-07 12:52:38 ah01 1.37% 1.8% 94% 48582 4.12 V
2026-05-07 12:52:37 ah01 1.37% 1.8% 94% 48582 4.12 V
2026-05-07 12:52:37 ah01 1.37% 1.8% 94% 48582 4.12 V
2026-05-07 12:52:14 ZS1G 0.03% 6.5% 101% 46 4.26 V
2026-05-07 12:52:14 ZS1G 0.03% 6.5% 101% 46 4.26 V
2026-05-07 12:51:53 ZS1G 0.03% 6.5% 101% 46 4.26 V
2026-05-07 12:51:53 ZS1G 0.03% 6.5% 101% 46 4.26 V
2026-05-07 12:51:26 ZS1G 0.03% 6.5% 101% 46 4.26 V
2026-05-07 12:51:24 ZS1G 0.03% 6.5% 101% 46 4.26 V
2026-05-07 12:51:24 ZS1G 0.03% 6.5% 101% 46 4.26 V
2026-05-07 12:51:22 JR70 1.23% 3.3% 87% 6152579 4.04 V
2026-05-07 12:51:21 JR70 1.23% 3.3% 87% 6152579 4.04 V
2026-05-07 12:50:18 2369 1.12% 12.1% 0% 107537 3.1 V
2026-05-07 12:50:05 2369 1.12% 12.1% 0% 107537 3.1 V
2026-05-07 12:50:05 2369 1.12% 12.1% 0% 107537 3.1 V
2026-05-07 12:50:01 2369 1.12% 12.1% 0% 107537 3.1 V
2026-05-07 12:50:01 2369 1.12% 12.1% 0% 107537 3.1 V
2026-05-07 12:50:01 2369 1.12% 12.1% 0% 107537 3.1 V
2026-05-07 12:49:50 ZS1G 0.04% 5.8% 99% 46 4.19 V
2026-05-07 12:49:50 ZS1G 0.04% 5.8% 99% 46 4.19 V
2026-05-07 12:49:50 ZS1G 0.04% 5.8% 99% 46 4.19 V
2026-05-07 12:49:49 ZS1G 0.04% 5.8% 99% 46 4.19 V
2026-05-07 12:49:47 ZS1G 0.04% 5.8% 99% 46 4.19 V
2026-05-07 12:49:45 ZS1G 0.04% 5.8% 99% 46 4.19 V
2026-05-07 12:49:45 ZS1G 0.04% 5.8% 99% 46 4.19 V
2026-05-07 12:49:41 HAM2 1.54% 7.3% 91% 1190022 4.08 V
2026-05-07 12:49:39 HAM2 1.54% 7.3% 91% 1190022 4.08 V
2026-05-07 12:49:38 HAM2 1.54% 7.3% 91% 1190022 4.08 V
2026-05-07 12:49:37 HAM2 1.54% 7.3% 91% 1190022 4.08 V
2026-05-07 12:49:36 HAM2 1.54% 7.3% 91% 1190022 4.08 V
2026-05-07 12:49:35 HAM2 1.54% 7.3% 91% 1190022 4.08 V
2026-05-07 12:49:35 HAM2 1.54% 7.3% 91% 1190022 4.08 V
2026-05-07 12:46:00 SMWS 0.47% 2.2% 41% 785659 3.64 V
2026-05-07 12:45:59 SMWS 0.47% 2.2% 41% 785659 3.64 V
2026-05-07 12:45:59 SMWS 0.47% 2.2% 41% 785659 3.64 V
2026-05-07 12:44:09 DJMH 0.37% 0.0% 93% 6473230 4.11 V
2026-05-07 12:44:09 DJMH 0.37% 0.0% 93% 6473230 4.11 V
2026-05-07 12:43:15 7274 0.41% 0.0% 100% 7784697 4.11 V
2026-05-07 12:43:14 7274 0.41% 0.0% 100% 7784697 4.11 V
2026-05-07 12:43:14 7274 0.41% 0.0% 100% 7784697 4.11 V
2026-05-07 12:43:02 Wdst 1.29% 7.7% 72% 4368975 3.91 V
2026-05-07 12:43:02 Wdst 1.29% 7.7% 72% 4368975 3.91 V
2026-05-07 12:43:02 Wdst 1.29% 7.7% 72% 4368975 3.91 V
2026-05-07 12:42:23 RF02 0.72% 5.5% 101% 8046 4.22 V
2026-05-07 12:42:23 RF02 0.72% 5.5% 101% 8046 4.22 V
2026-05-07 12:42:23 RF02 0.72% 5.5% 101% 8046 4.22 V
2026-05-07 12:40:51 RF03 0.18% 6.7% 47% 52811 3.63 V
2026-05-07 12:40:44 RF03 0.18% 6.7% 47% 52811 3.63 V
2026-05-07 12:40:43 RF03 0.18% 6.7% 47% 52811 3.63 V
2026-05-07 12:40:40 Gert 1.57% 2.2% 97% 333756 4.15 V
2026-05-07 12:40:40 Gert 1.57% 2.2% 97% 333756 4.15 V
2026-05-07 12:40:39 RF03 0.18% 6.7% 47% 52811 3.63 V
2026-05-07 12:40:39 RF03 0.18% 6.7% 47% 52811 3.63 V
2026-05-07 12:40:36 RF03 0.18% 6.7% 47% 52811 3.63 V
2026-05-07 12:40:36 Gert 1.57% 2.2% 97% 333756 4.15 V
2026-05-07 12:40:36 Gert 1.57% 2.2% 97% 333756 4.15 V
2026-05-07 12:40:36 Gert 1.57% 2.2% 97% 333756 4.15 V
2026-05-07 12:40:34 RF03 0.18% 6.7% 47% 52811 3.63 V
2026-05-07 12:40:33 RF03 0.18% 6.7% 47% 52811 3.63 V
2026-05-07 12:40:33 RF03 0.18% 6.7% 47% 52811 3.63 V
2026-05-07 12:39:08 1808 2.29% 17.7% 101% 17992 -0.0 V
2026-05-07 12:39:08 1808 2.29% 17.7% 101% 17992 -0.0 V
2026-05-07 12:39:05 RF67 0.81% 4.4% 101% 10566 3.53 V
2026-05-07 12:39:05 RF67 0.81% 4.4% 101% 10566 3.53 V
2026-05-07 12:39:04 RF67 0.81% 4.4% 101% 10566 3.53 V
2026-05-07 12:38:59 RF67 0.81% 4.4% 101% 10566 3.53 V
2026-05-07 12:38:59 RF67 0.81% 4.4% 101% 10566 3.53 V
2026-05-07 12:38:59 RF67 0.81% 4.4% 101% 10566 3.53 V
2026-05-07 12:38:54 RF67 0.81% 4.4% 101% 10566 3.53 V
2026-05-07 12:38:53 RF67 0.81% 4.4% 101% 10566 3.53 V
2026-05-07 12:38:53 RF67 0.81% 4.4% 101% 10566 3.53 V
2026-05-07 12:37:31 LMBr 2.12% 8.5% 95% 3851258 4.12 V
2026-05-07 12:37:31 LMBr 2.12% 8.5% 95% 3851258 4.12 V
2026-05-07 12:37:30 LMBr 2.12% 8.5% 95% 3851258 4.12 V
2026-05-07 12:37:30 LMBr 2.12% 8.5% 95% 3851258 4.12 V
2026-05-07 12:37:30 LMBr 2.12% 8.5% 95% 3851258 4.12 V
2026-05-07 12:36:50 HT77 870.52 hPa 45.47% 22.43°C
2026-05-07 12:36:50 HT77 870.52 hPa 45.47% 22.43°C
2026-05-07 12:36:36 IIXF 851.13 hPa 32.53% 25.35°C 219.13 Ohm
2026-05-07 12:36:36 IIXF 851.13 hPa 32.53% 25.35°C 219.13 Ohm
2026-05-07 12:36:25 JR70 1.28% 4.4% 90% 6151676 4.06 V
2026-05-07 12:36:25 JR70 1.28% 4.4% 90% 6151676 4.06 V
2026-05-07 12:36:18 IIXF 0.75% 0.6% 101% 266841 4.27 V
2026-05-07 12:36:18 IIXF 0.75% 0.6% 101% 266841 4.27 V
2026-05-07 12:34:51 RF06 0.49% 4.7% 101% 52898 -0.0 V
2026-05-07 12:34:50 RF06 0.49% 4.7% 101% 52898 -0.0 V
2026-05-07 12:34:50 RF06 0.49% 4.7% 101% 52898 -0.0 V
2026-05-07 12:34:50 RF06 0.49% 4.7% 101% 52898 -0.0 V
2026-05-07 12:34:44 RF06 0.49% 4.7% 101% 52898 -0.0 V
2026-05-07 12:34:44 RF06 0.49% 4.7% 101% 52898 -0.0 V
2026-05-07 12:34:44 RF06 0.49% 4.7% 101% 52898 -0.0 V
2026-05-07 12:33:34 21a9 1007.19 hPa 43.27% 24.88°C
2026-05-07 12:33:33 21a9 1007.19 hPa 43.27% 24.88°C
2026-05-07 12:33:33 21a9 1007.19 hPa 43.27% 24.88°C
2026-05-07 12:33:32 21a9 1007.19 hPa 43.27% 24.88°C
2026-05-07 12:33:32 21a9 1007.19 hPa 43.27% 24.88°C
2026-05-07 12:33:07 21a9 0.67% 2.3% 92% 777747 4.08 V
2026-05-07 12:33:07 21a9 0.67% 2.3% 92% 777747 4.08 V
2026-05-07 12:33:07 21a9 0.67% 2.3% 92% 777747 4.08 V
2026-05-07 12:33:01 21a9 0.67% 2.3% 92% 777747 4.08 V
2026-05-07 12:33:00 21a9 0.67% 2.3% 92% 777747 4.08 V
2026-05-07 12:33:00 21a9 0.67% 2.3% 92% 777747 4.08 V
2026-05-07 12:32:59 HT77 0.31% 0.0% 101% 963461 4.28 V
2026-05-07 12:32:59 HT77 0.31% 0.0% 101% 963461 4.28 V
2026-05-07 12:31:28 LRX1 1.32% 5.2% 79% 138098 3.99 V
2026-05-07 12:31:28 LRX1 1.32% 5.2% 79% 138098 3.99 V
2026-05-07 12:31:25 LRX1 1.32% 5.2% 79% 138098 3.99 V
2026-05-07 12:31:24 LRX1 1.32% 5.2% 79% 138098 3.99 V
2026-05-07 12:31:24 LRX1 1.32% 5.2% 79% 138098 3.99 V
2026-05-07 12:31:21 LRX1 1.32% 5.2% 79% 138098 3.99 V
2026-05-07 12:31:00 LRX1 1012.07 hPa 41.67% 23.26°C
2026-05-07 12:31:00 LRX1 1012.07 hPa 41.67% 23.26°C
2026-05-07 12:30:58 LRX1 1012.07 hPa 41.67% 23.26°C
2026-05-07 12:30:57 LRX1 1012.07 hPa 41.67% 23.26°C
2026-05-07 12:30:57 LRX1 1012.07 hPa 41.67% 23.26°C
2026-05-07 12:30:57 LRX1 1012.07 hPa 41.67% 23.26°C
2026-05-07 12:30:57 LRX1 1012.07 hPa 41.67% 23.26°C
2026-05-07 12:30:03 ah03
2026-05-07 12:30:01 ah03
2026-05-07 12:30:01 ah03
2026-05-07 12:29:58 ah03
2026-05-07 12:29:56 ah03
2026-05-07 12:29:56 ah03
2026-05-07 12:28:06 Wdst 1.37% 4.3% 73% 4368075 3.92 V
2026-05-07 12:28:06 Wdst 1.37% 4.3% 73% 4368075 3.92 V
2026-05-07 12:28:06 Wdst 1.37% 4.3% 73% 4368075 3.92 V
2026-05-07 12:28:03 SMWS 0.51% 4.2% 41% 784569 3.65 V
2026-05-07 12:28:03 SMWS 0.51% 4.2% 41% 784569 3.65 V
2026-05-07 12:27:57 MELK 0.04% 0.0% 97% 4422782 4.15 V
2026-05-07 12:27:57 MELK 0.04% 0.0% 97% 4422782 4.15 V
2026-05-07 12:27:48 MELK 0.04% 0.0% 97% 4422782 4.15 V
2026-05-07 12:27:47 MELK 0.04% 0.0% 97% 4422782 4.15 V
2026-05-07 12:26:51 LMBs 23.34°C
2026-05-07 12:26:51 LMBs 23.34°C
2026-05-07 12:22:37 LMGB 0.06% 0.0% 101% 8698 -0.0 V
2026-05-07 12:22:36 LMGB 0.06% 0.0% 101% 8698 -0.0 V
2026-05-07 12:21:56 PTRH 1.84% 2.2% 55% 946807 3.77 V
2026-05-07 12:21:56 PTRH 1.84% 2.2% 55% 946807 3.77 V
2026-05-07 12:21:44 JR70 1.3% 2.2% 83% 6150773 4.01 V
2026-05-07 12:21:44 JR70 1.3% 2.2% 83% 6150773 4.01 V
2026-05-07 12:21:34 PTRH 1.84% 2.2% 55% 946807 3.77 V
2026-05-07 12:21:34 PTRH 1.84% 2.2% 55% 946807 3.77 V
2026-05-07 12:20:23 c238 0.02% 1.4% 101% 46 4.24 V
2026-05-07 12:20:23 c238 0.02% 1.4% 101% 46 4.24 V
2026-05-07 12:20:13 MJTM 1.5% 2.0% 101% 1739162 4.27 V
2026-05-07 12:20:12 MJTM 1.5% 2.0% 101% 1739162 4.27 V
2026-05-07 12:20:10 MJTM 1.5% 2.0% 101% 1739162 4.27 V
2026-05-07 12:19:52 HAM2 2.62% 0.0% 91% 1188222 4.08 V
2026-05-07 12:19:52 HAM2 2.62% 0.0% 91% 1188222 4.08 V
2026-05-07 12:19:46 HAM2 2.62% 0.0% 91% 1188222 4.08 V
2026-05-07 12:19:44 MJTM 1.5% 2.0% 101% 1739162 4.27 V
2026-05-07 12:19:44 HAM2 2.62% 0.0% 91% 1188222 4.08 V
2026-05-07 12:19:44 HAM2 2.62% 0.0% 91% 1188222 4.08 V
2026-05-07 12:19:43 MJTM 1.5% 2.0% 101% 1739162 4.27 V
2026-05-07 12:19:39 MJTM 1.5% 2.0% 101% 1739162 4.27 V
2026-05-07 12:19:39 MJTM 1.5% 2.0% 101% 1739162 4.27 V
2026-05-07 12:19:35 HAM2 2.62% 0.0% 91% 1188222 4.08 V
2026-05-07 12:19:35 HAM2 2.62% 0.0% 91% 1188222 4.08 V
2026-05-07 12:19:35 HAM2 2.62% 0.0% 91% 1188222 4.08 V
2026-05-07 12:18:36 IIXF 851.21 hPa 32.84% 25.26°C 217.4 Ohm
2026-05-07 12:18:36 IIXF 851.21 hPa 32.84% 25.26°C 217.4 Ohm
2026-05-07 12:18:18 IIXF 0.65% 0.0% 101% 265761 4.27 V
2026-05-07 12:18:18 IIXF 0.65% 0.0% 101% 265761 4.27 V
2026-05-07 12:17:38 RX01 0.04% 0.0% 101% 23850 0.0 V
2026-05-07 12:17:37 RX01 0.04% 0.0% 101% 23850 0.0 V
2026-05-07 12:17:32 ah02 0.04% 9.3% 66% 61 3.86 V
2026-05-07 12:17:18 ah02 0.04% 9.3% 66% 61 3.86 V
2026-05-07 12:17:17 ah02 0.04% 9.3% 66% 61 3.86 V
2026-05-07 12:17:17 ah02 0.04% 9.3% 66% 61 3.86 V
2026-05-07 12:17:17 ah02 0.04% 9.3% 66% 61 3.86 V
2026-05-07 12:13:02 Wdst 1.38% 73% 4367174 3.92 V
2026-05-07 12:13:02 Wdst 1.38% 73% 4367174 3.92 V
2026-05-07 12:13:02 Wdst 1.38% 73% 4367174 3.92 V
2026-05-07 12:12:34 PcL1 0.12% 0.0% 101% 54195 4.23 V
2026-05-07 12:12:34 PcL1 0.12% 0.0% 101% 54195 4.23 V
2026-05-07 12:09:14 SMWS 0.46% 8.8% 45% 783452 3.68 V
2026-05-07 12:09:14 SMWS 0.46% 8.8% 45% 783452 3.68 V
2026-05-07 12:08:29 MRB1 1.91% 5.4% 101% 156660 4.25 V
2026-05-07 12:08:25 MRB1 1.91% 5.4% 101% 156660 4.25 V
2026-05-07 12:08:25 MRB1 1.91% 5.4% 101% 156660 4.25 V
2026-05-07 12:08:24 MRB1 1.91% 5.4% 101% 156660 4.25 V
2026-05-07 12:08:18 MRB1 1.91% 5.4% 101% 156660 4.25 V
2026-05-07 12:08:17 MRB1 1.91% 5.4% 101% 156660 4.25 V
2026-05-07 12:08:17 MRB1 1.91% 5.4% 101% 156660 4.25 V
2026-05-07 12:08:00 2369 1.24% 5.7% 0% 105017 3.1 V
2026-05-07 12:08:00 2369 1.24% 5.7% 0% 105017 3.1 V
2026-05-07 12:08:00 2369 1.24% 5.7% 0% 105017 3.1 V
2026-05-07 12:07:13 7274 0.36% 1.8% 100% 7782535 4.11 V
2026-05-07 12:07:12 7274 0.36% 1.8% 100% 7782535 4.11 V
2026-05-07 12:07:12 7274 0.36% 1.8% 100% 7782535 4.11 V
2026-05-07 12:06:15 JR70 1.35% 2.2% 81% 6149870 4.0 V
2026-05-07 12:06:15 JR70 1.35% 2.2% 81% 6149870 4.0 V
2026-05-07 12:05:59 RF67 0.87% 21.7% 101% 8586 3.51 V
2026-05-07 12:05:58 RF67 0.87% 21.7% 101% 8586 3.51 V
2026-05-07 12:05:58 RF67 0.87% 21.7% 101% 8586 3.51 V
2026-05-07 12:05:58 RF67 0.87% 21.7% 101% 8586 3.51 V
2026-05-07 12:05:57 RF67 0.87% 21.7% 101% 8586 3.51 V
2026-05-07 12:05:53 RF67 0.87% 21.7% 101% 8586 3.51 V
2026-05-07 12:05:53 RF67 0.87% 21.7% 101% 8586 3.51 V
2026-05-07 12:05:53 RF67 0.87% 21.7% 101% 8586 3.51 V
2026-05-07 12:01:42 RF03 0.16% 7.2% 48% 50471 3.64 V
2026-05-07 12:01:42 RF03 0.16% 7.2% 48% 50471 3.64 V
2026-05-07 12:01:41 RF03 0.16% 7.2% 48% 50471 3.64 V
2026-05-07 12:01:38 RF03 0.16% 7.2% 48% 50471 3.64 V
2026-05-07 12:01:38 RF03 0.16% 7.2% 48% 50471 3.64 V
2026-05-07 12:01:33 RF03 0.16% 7.2% 48% 50471 3.64 V
2026-05-07 12:01:33 RF03 0.16% 7.2% 48% 50471 3.64 V
2026-05-07 12:01:33 RF03 0.16% 7.2% 48% 50471 3.64 V
2026-05-07 12:01:25 LRX1 1.5% 9.3% 80% 136297 3.99 V
2026-05-07 12:01:25 LRX1 1.5% 9.3% 80% 136297 3.99 V
2026-05-07 12:01:22 LRX1 1.5% 9.3% 80% 136297 3.99 V
2026-05-07 12:01:21 LRX1 1.5% 9.3% 80% 136297 3.99 V
2026-05-07 12:01:20 LRX1 1.5% 9.3% 80% 136297 3.99 V
2026-05-07 12:01:20 LRX1 1.5% 9.3% 80% 136297 3.99 V
2026-05-07 12:01:00 LRX1 1012.23 hPa 43.25% 23.61°C
2026-05-07 12:01:00 LRX1 1012.23 hPa 43.25% 23.61°C
2026-05-07 12:00:59 LRX1 1012.23 hPa 43.25% 23.61°C
2026-05-07 12:00:57 LRX1 1012.23 hPa 43.25% 23.61°C
2026-05-07 12:00:56 LRX1 1012.23 hPa 43.25% 23.61°C
2026-05-07 12:00:36 IIXF 851.48 hPa 32.97% 25.15°C 216.55 Ohm
2026-05-07 12:00:36 IIXF 851.48 hPa 32.97% 25.15°C 216.55 Ohm
2026-05-07 12:00:18 IIXF 0.64% 0.0% 101% 264681 4.27 V
2026-05-07 12:00:18 IIXF 0.64% 0.0% 101% 264681 4.27 V
2026-05-07 11:59:46 Jim1 0.58% 3.4% 94% 6826401 4.11 V
2026-05-07 11:59:46 Jim1 0.58% 3.4% 94% 6826401 4.11 V
2026-05-07 11:59:45 Jim1 0.58% 3.4% 94% 6826401 4.11 V
2026-05-07 11:59:45 Jim1 0.58% 3.4% 94% 6826401 4.11 V
2026-05-07 11:59:44 Jim1 0.58% 3.4% 94% 6826401 4.11 V
2026-05-07 11:59:42 Jim1 0.58% 3.4% 94% 6826401 4.11 V
2026-05-07 11:59:42 Jim1 0.58% 3.4% 94% 6826401 4.11 V
2026-05-07 11:58:43 976c 0.57% 5.7% 101% 4667813 4.22 V
2026-05-07 11:58:43 976c 0.57% 5.7% 101% 4667813 4.22 V
2026-05-07 11:58:23 Wdst 1.48% 10.8% 73% 4366274 3.92 V
2026-05-07 11:58:23 Wdst 1.48% 10.8% 73% 4366274 3.92 V
2026-05-07 11:58:23 Wdst 1.48% 10.8% 73% 4366274 3.92 V
2026-05-07 11:58:14 MELK 0.04% 0.0% 97% 4420982 4.15 V
2026-05-07 11:58:14 MELK 0.04% 0.0% 97% 4420982 4.15 V
2026-05-07 11:58:13 MELK 0.04% 0.0% 97% 4420982 4.15 V
2026-05-07 11:58:13 MELK 0.04% 0.0% 97% 4420982 4.15 V
2026-05-07 11:58:12 MELK 0.04% 0.0% 97% 4420982 4.15 V
2026-05-07 11:57:46 MELK 0.04% 0.0% 97% 4420982 4.15 V
2026-05-07 11:57:46 MELK 0.04% 0.0% 97% 4420982 4.15 V
2026-05-07 11:57:46 MELK 0.04% 0.0% 97% 4420982 4.15 V
2026-05-07 11:56:58 HT77 0.27% 0.0% 101% 961301 4.29 V
2026-05-07 11:56:58 HT77 0.27% 0.0% 101% 961301 4.29 V
2026-05-07 11:56:31 RF02 0.81% 12.8% 101% 5286 4.22 V
2026-05-07 11:56:30 RF02 0.81% 12.8% 101% 5286 4.22 V
2026-05-07 11:56:30 RF02 0.81% 12.8% 101% 5286 4.22 V
2026-05-07 11:56:28 RF02 0.81% 12.8% 101% 5286 4.22 V
2026-05-07 11:56:27 RF02 0.81% 12.8% 101% 5286 4.22 V
2026-05-07 11:56:19 RF02 0.81% 12.8% 101% 5286 4.22 V
2026-05-07 11:56:19 RF02 0.81% 12.8% 101% 5286 4.22 V
2026-05-07 11:56:19 RF02 0.81% 12.8% 101% 5286 4.22 V
2026-05-07 11:54:42 LAM2 1.35% 8.1% 101% 15060 4.32 V
2026-05-07 11:54:42 LAM2 1.35% 8.1% 101% 15060 4.32 V
2026-05-07 11:54:41 LAM2 1.35% 8.1% 101% 15060 4.32 V
2026-05-07 11:54:39 LAM2 1.35% 8.1% 101% 15060 4.32 V
2026-05-07 11:54:39 LAM2 1.35% 8.1% 101% 15060 4.32 V
2026-05-07 11:54:39 LAM2 1.35% 8.1% 101% 15060 4.32 V
2026-05-07 11:54:39 LAM2 1.35% 8.1% 101% 15060 4.32 V
2026-05-07 11:53:26 RF01 0.69% 7.9% 99% 82748 4.18 V
2026-05-07 11:53:18 RF01 0.69% 7.9% 99% 82748 4.18 V
2026-05-07 11:53:17 RF01 0.69% 7.9% 99% 82748 4.18 V
2026-05-07 11:53:02 RLSC 1002.23 hPa 70.39% 21.1°C
2026-05-07 11:53:02 RLSC 1002.23 hPa 70.39% 21.1°C
2026-05-07 11:52:30 RF01 0.69% 7.9% 99% 82748 4.18 V
2026-05-07 11:52:30 RF01 0.69% 7.9% 99% 82748 4.18 V
2026-05-07 11:52:29 RF01 0.69% 7.9% 99% 82748 4.18 V
2026-05-07 11:52:29 RF01 0.69% 7.9% 99% 82748 4.18 V
2026-05-07 11:51:15 JR70 1.35% 5.5% 89% 6148967 4.05 V
2026-05-07 11:51:15 JR70 1.35% 5.5% 89% 6148967 4.05 V
2026-05-07 11:50:34 ah03
2026-05-07 11:50:29 ah03
2026-05-07 11:50:29 ah03
2026-05-07 11:50:29 ah03
2026-05-07 11:50:29 ah03
2026-05-07 11:49:48 MJTM 1.64% 9.5% 101% 1737362 4.21 V
2026-05-07 11:49:48 MJTM 1.64% 9.5% 101% 1737362 4.21 V
2026-05-07 11:49:48 MJTM 1.64% 9.5% 101% 1737362 4.21 V
2026-05-07 11:49:47 MJTM 1.64% 9.5% 101% 1737362 4.21 V
2026-05-07 11:49:46 MJTM 1.64% 9.5% 101% 1737362 4.21 V
2026-05-07 11:49:39 HAM2 2.66% 7.4% 92% 1186422 4.08 V
2026-05-07 11:49:39 MJTM 1.64% 9.5% 101% 1737362 4.21 V
2026-05-07 11:49:38 HAM2 2.66% 7.4% 92% 1186422 4.08 V
2026-05-07 11:49:38 HAM2 2.66% 7.4% 92% 1186422 4.08 V
2026-05-07 11:49:35 HAM2 2.66% 7.4% 92% 1186422 4.08 V
2026-05-07 11:49:35 HAM2 2.66% 7.4% 92% 1186422 4.08 V
2026-05-07 11:49:35 HAM2 2.66% 7.4% 92% 1186422 4.08 V
2026-05-07 11:49:05 RF06 0.51% 12.5% 101% 50138 -0.0 V
2026-05-07 11:49:05 RF06 0.51% 12.5% 101% 50138 -0.0 V
2026-05-07 11:48:51 RF06 0.51% 12.5% 101% 50138 -0.0 V
2026-05-07 11:48:49 RF06 0.51% 12.5% 101% 50138 -0.0 V
2026-05-07 11:48:49 RF06 0.51% 12.5% 101% 50138 -0.0 V
2026-05-07 11:48:49 RF06 0.51% 12.5% 101% 50138 -0.0 V
2026-05-07 11:48:44 RF06 0.51% 12.5% 101% 50138 -0.0 V
2026-05-07 11:48:44 RF06 0.51% 12.5% 101% 50138 -0.0 V
2026-05-07 11:48:44 RF06 0.51% 12.5% 101% 50138 -0.0 V
2026-05-07 11:46:44 Aero 1.87% 14.6% 101% 47954 4.19 V
2026-05-07 11:46:44 Aero 1.87% 14.6% 101% 47954 4.19 V
2026-05-07 11:46:36 LMGB 0.06% 0.0% 101% 6537 -0.0 V
2026-05-07 11:46:36 LMGB 0.06% 0.0% 101% 6537 -0.0 V
2026-05-07 11:45:33 PTRH 1.99% 6.7% 56% 944647 3.78 V
2026-05-07 11:45:33 PTRH 1.99% 6.7% 56% 944647 3.78 V
2026-05-07 11:44:15 DJMH 0.37% 0.0% 96% 6469630 4.13 V
2026-05-07 11:44:15 DJMH 0.37% 0.0% 96% 6469630 4.13 V
2026-05-07 11:42:57 HT77 871.11 hPa 46.44% 25.31°C
2026-05-07 11:42:56 HT77 871.11 hPa 46.44% 25.31°C
2026-05-07 11:42:36 IIXF 851.71 hPa 32.54% 24.94°C 224.64 Ohm
2026-05-07 11:42:36 IIXF 851.71 hPa 32.54% 24.94°C 224.64 Ohm
2026-05-07 11:42:18 IIXF 0.64% 0.0% 101% 263601 4.28 V
2026-05-07 11:42:18 IIXF 0.64% 0.0% 101% 263601 4.28 V
2026-05-07 11:41:37 RX01 0.04% 1.0% 101% 21689 0.0 V
2026-05-07 11:41:36 RX01 0.04% 1.0% 101% 21689 0.0 V
2026-05-07 11:41:12 BB02 1.29% 0.0% 101% 180619 4.22 V
2026-05-07 11:41:11 BB02 1.29% 0.0% 101% 180619 4.22 V
2026-05-07 11:41:10 BB02 1.29% 0.0% 101% 180619 4.22 V
2026-05-07 11:41:10 BB02 1.29% 0.0% 101% 180619 4.22 V
2026-05-07 11:41:10 BB02 1.29% 0.0% 101% 180619 4.22 V
2026-05-07 11:41:09 BB02 1.29% 0.0% 101% 180619 4.22 V
2026-05-07 11:38:57 HT77 0.28% 2.8% 101% 960221 4.29 V
2026-05-07 11:38:57 HT77 0.28% 2.8% 101% 960221 4.29 V
2026-05-07 11:38:25 ah03 1017.47 hPa 56.75% 20.37°C
2026-05-07 11:38:15 ah03 1017.47 hPa 56.75% 20.37°C
2026-05-07 11:38:14 ah03 1017.47 hPa 56.75% 20.37°C
2026-05-07 11:38:09 ah03 1017.47 hPa 56.75% 20.37°C
2026-05-07 11:38:08 ah03 1017.47 hPa 56.75% 20.37°C
2026-05-07 11:38:02 ah03 1017.47 hPa 56.75% 20.37°C
2026-05-07 11:38:02 ah03 1017.47 hPa 56.75% 20.37°C
2026-05-07 11:33:31 21a9 1007.69 hPa 45.73% 24.68°C
2026-05-07 11:33:31 21a9 1007.69 hPa 45.73% 24.68°C
2026-05-07 11:33:29 21a9 1007.69 hPa 45.73% 24.68°C
2026-05-07 11:33:29 21a9 1007.69 hPa 45.73% 24.68°C
2026-05-07 11:33:28 21a9 0.57% 0.0% 93% 774147 4.1 V
2026-05-07 11:33:27 21a9 0.57% 0.0% 93% 774147 4.1 V
2026-05-07 11:33:26 21a9 0.57% 0.0% 93% 774147 4.1 V
2026-05-07 11:33:26 21a9 0.57% 0.0% 93% 774147 4.1 V
2026-05-07 11:32:55 SMWS 0.64% 3.3% 41% 781267 3.64 V
2026-05-07 11:32:54 SMWS 0.64% 3.3% 41% 781267 3.64 V
2026-05-07 11:32:54 SMWS 0.64% 3.3% 41% 781267 3.64 V
2026-05-07 11:32:02 RF67 0.97% 18.0% 101% 6546 3.49 V
2026-05-07 11:31:58 RF67 0.97% 18.0% 101% 6546 3.49 V
2026-05-07 11:31:57 RF67 0.97% 18.0% 101% 6546 3.49 V
2026-05-07 11:31:53 RF67 0.97% 18.0% 101% 6546 3.49 V
2026-05-07 11:31:53 RF67 0.97% 18.0% 101% 6546 3.49 V
2026-05-07 11:31:53 RF67 0.97% 18.0% 101% 6546 3.49 V
2026-05-07 11:31:28 LRX1 1.76% 12.0% 81% 134497 4.0 V
2026-05-07 11:31:24 LRX1 1.76% 12.0% 81% 134497 4.0 V
2026-05-07 11:31:24 LRX1 1.76% 12.0% 81% 134497 4.0 V
2026-05-07 11:31:22 LRX1 1.76% 12.0% 81% 134497 4.0 V
2026-05-07 11:31:21 LRX1 1.76% 12.0% 81% 134497 4.0 V
2026-05-07 11:31:12 7274 0.36% 2.4% 100% 7780375 4.11 V
2026-05-07 11:31:12 7274 0.36% 2.4% 100% 7780375 4.11 V
2026-05-07 11:31:12 7274 0.36% 2.4% 100% 7780375 4.11 V
2026-05-07 11:30:58 LRX1 1012.47 hPa 44.71% 23.73°C
2026-05-07 11:30:57 LRX1 1012.47 hPa 44.71% 23.73°C
2026-05-07 11:30:57 LRX1 1012.47 hPa 44.71% 23.73°C
2026-05-07 11:30:57 LRX1 1012.47 hPa 44.71% 23.73°C
2026-05-07 11:30:57 LRX1 1012.47 hPa 44.71% 23.73°C
2026-05-07 11:30:25 PcL1 0.1% 0.0% 101% 51665 4.22 V
2026-05-07 11:30:24 PcL1 0.1% 0.0% 101% 51665 4.22 V
2026-05-07 11:28:51 2-D 0.5% 1.9% 101% 12915253 4.23 V
2026-05-07 11:28:50 2-D 0.5% 1.9% 101% 12915253 4.23 V
2026-05-07 11:28:45 Gert 2.0% 12.6% 101% 329435 4.22 V
2026-05-07 11:28:41 Gert 2.0% 12.6% 101% 329435 4.22 V
2026-05-07 11:28:40 Gert 2.0% 12.6% 101% 329435 4.22 V
2026-05-07 11:28:39 LMBr 2.61% 17.2% 95% 3847118 4.12 V
2026-05-07 11:28:39 LMBr 2.61% 17.2% 95% 3847118 4.12 V
2026-05-07 11:28:38 Gert 2.0% 12.6% 101% 329435 4.22 V
2026-05-07 11:28:38 Gert 2.0% 12.6% 101% 329435 4.22 V
2026-05-07 11:28:30 LMBr 2.61% 17.2% 95% 3847118 4.12 V
2026-05-07 11:28:28 LMBr 2.61% 17.2% 95% 3847118 4.12 V
2026-05-07 11:28:28 LMBr 2.61% 17.2% 95% 3847118 4.12 V
2026-05-07 11:28:28 LMBr 2.61% 17.2% 95% 3847118 4.12 V
2026-05-07 11:28:22 Wdst 1.45% 4.0% 73% 4364474 3.92 V
2026-05-07 11:28:22 Wdst 1.45% 4.0% 73% 4364474 3.92 V
2026-05-07 11:28:22 Wdst 1.45% 4.0% 73% 4364474 3.92 V
2026-05-07 11:27:54 MELK 0.05% 0.0% 97% 4419182 4.15 V
2026-05-07 11:27:52 MELK 0.05% 0.0% 97% 4419182 4.15 V
2026-05-07 11:27:51 MELK 0.05% 0.0% 97% 4419182 4.15 V
2026-05-07 11:27:48 MELK 0.05% 0.0% 97% 4419182 4.15 V
2026-05-07 11:27:48 MELK 0.05% 0.0% 97% 4419182 4.15 V
2026-05-07 11:27:46 MELK 0.05% 0.0% 97% 4419182 4.15 V
2026-05-07 11:27:46 MELK 0.05% 0.0% 97% 4419182 4.15 V
2026-05-07 11:26:48 LMBs 22.75°C
2026-05-07 11:26:48 LMBs 22.75°C
2026-05-07 11:26:05 2369 0.87% 6.9% 1% 102497 3.12 V
2026-05-07 11:26:05 2369 0.87% 6.9% 1% 102497 3.12 V
2026-05-07 11:26:00 2369 0.87% 6.9% 1% 102497 3.12 V
2026-05-07 11:26:00 2369 0.87% 6.9% 1% 102497 3.12 V
2026-05-07 11:25:59 2369 0.87% 6.9% 1% 102497 3.12 V
2026-05-07 11:25:09 1808 2.82% 17.3% 101% 13552 -0.0 V
2026-05-07 11:25:09 1808 2.82% 17.3% 101% 13552 -0.0 V
2026-05-07 11:24:50 HT77 871.26 hPa 45.88% 27.5°C
2026-05-07 11:24:50 HT77 871.26 hPa 45.88% 27.5°C
2026-05-07 11:24:42 SZA1 43.02% 32.14°C
2026-05-07 11:24:42 SZA1 43.02% 32.14°C
2026-05-07 11:24:36 IIXF 851.96 hPa 33.02% 24.72°C 227.42 Ohm
2026-05-07 11:24:36 IIXF 851.96 hPa 33.02% 24.72°C 227.42 Ohm
2026-05-07 11:24:34 RF03 0.11% 18.4% 48% 48251 3.65 V
2026-05-07 11:24:33 RF03 0.11% 18.4% 48% 48251 3.65 V
2026-05-07 11:24:33 RF03 0.11% 18.4% 48% 48251 3.65 V
2026-05-07 11:24:18 IIXF 0.67% 0.0% 101% 262521 4.27 V
2026-05-07 11:24:18 IIXF 0.67% 0.0% 101% 262521 4.27 V
2026-05-07 11:23:34 e536 0.23% 4.4% 100% 47556175 4.2 V
2026-05-07 11:23:20 ah01 1.21% 0.0% 94% 43177 4.12 V
2026-05-07 11:23:19 RF02 0.98% 2.1% 101% 3306 4.23 V
2026-05-07 11:23:19 RF02 0.98% 2.1% 101% 3306 4.23 V
2026-05-07 11:23:19 RF02 0.98% 2.1% 101% 3306 4.23 V
2026-05-07 11:22:36 ah01 1.21% 0.0% 94% 43177 4.12 V
2026-05-07 11:22:36 ah01 1.21% 0.0% 94% 43177 4.12 V
2026-05-07 11:22:35 ah01 1.21% 0.0% 94% 43177 4.12 V
2026-05-07 11:22:34 ah01 1.21% 0.0% 94% 43177 4.12 V
2026-05-07 11:22:32 ah01 1.21% 0.0% 94% 43177 4.12 V
2026-05-07 11:21:38 e40c 0.29% 2.0% 101% 354692 4.26 V
2026-05-07 11:21:13 JR70 1.15% 1.1% 85% 6147161 4.02 V
2026-05-07 11:21:13 JR70 1.15% 1.1% 85% 6147161 4.02 V
2026-05-07 11:21:00 HT77 0.26% 0.0% 101% 959141 4.29 V
2026-05-07 11:21:00 HT77 0.26% 0.0% 101% 959141 4.29 V
2026-05-07 11:20:06 HAM2 2.26% 2.8% 92% 1184622 4.08 V
2026-05-07 11:19:52 HAM2 2.26% 2.8% 92% 1184622 4.08 V
2026-05-07 11:19:52 HAM2 2.26% 2.8% 92% 1184622 4.08 V
2026-05-07 11:19:39 HAM2 2.26% 2.8% 92% 1184622 4.08 V
2026-05-07 11:19:36 HAM2 2.26% 2.8% 92% 1184622 4.08 V
2026-05-07 11:19:36 HAM2 2.26% 2.8% 92% 1184622 4.08 V
2026-05-07 11:19:36 HAM2 2.26% 2.8% 92% 1184622 4.08 V
2026-05-07 11:17:37 DOS 2.1% 2.0% 100% 263917 4.19 V
2026-05-07 11:17:35 DOS 2.1% 2.0% 100% 263917 4.19 V
2026-05-07 11:17:35 DOS 2.1% 2.0% 100% 263917 4.19 V
2026-05-07 11:15:23 ah02 59.06% 22.26°C
2026-05-07 11:15:20 ah02 59.06% 22.26°C
2026-05-07 11:15:18 ah02 59.06% 22.26°C
2026-05-07 11:15:18 ah02 59.06% 22.26°C
2026-05-07 11:15:18 ah02 59.06% 22.26°C
2026-05-07 11:14:53 ah02 0.04% 24.9% 68% 61 3.88 V
2026-05-07 11:14:52 ah02 0.04% 24.9% 68% 61 3.88 V
2026-05-07 11:14:52 ah02 0.04% 24.9% 68% 61 3.88 V
2026-05-07 11:14:52 ah02 0.04% 24.9% 68% 61 3.88 V
2026-05-07 11:14:52 ah02 0.04% 24.9% 68% 61 3.88 V
2026-05-07 11:14:30 SMWS 0.8% 0.0% 39% 780160 3.63 V
2026-05-07 11:14:29 SMWS 0.8% 0.0% 39% 780160 3.63 V
2026-05-07 11:14:29 SMWS 0.8% 0.0% 39% 780160 3.63 V
2026-05-07 11:14:09 DJMH 0.34% 0.0% 96% 6467830 4.14 V
2026-05-07 11:14:08 DJMH 0.34% 0.0% 96% 6467830 4.14 V
2026-05-07 11:13:05 Wdst 1.59% 7.1% 72% 4363573 3.92 V
2026-05-07 11:13:05 Wdst 1.59% 7.1% 72% 4363573 3.92 V
2026-05-07 11:13:05 Wdst 1.59% 7.1% 72% 4363573 3.92 V
2026-05-07 11:11:52 Jim1 0.58% 7.0% 93% 6823521 4.1 V
2026-05-07 11:11:52 Jim1 0.58% 7.0% 93% 6823521 4.1 V
2026-05-07 11:11:51 Jim1 0.58% 7.0% 93% 6823521 4.1 V
2026-05-07 11:11:50 Jim1 0.58% 7.0% 93% 6823521 4.1 V
2026-05-07 11:11:49 Jim1 0.58% 7.0% 93% 6823521 4.1 V
2026-05-07 11:11:05 CLA1 3.85% 10.6% 101% 774502 4.13 V
2026-05-07 11:11:04 CLA1 3.85% 10.6% 101% 774502 4.13 V
2026-05-07 11:11:04 CLA1 3.85% 10.6% 101% 774502 4.13 V
2026-05-07 11:11:04 CLA1 3.85% 10.6% 101% 774502 4.13 V
2026-05-07 11:10:47 MJTM 2.5% 3.2% 101% 1735021 4.24 V
2026-05-07 11:10:45 MJTM 2.5% 3.2% 101% 1735021 4.24 V
2026-05-07 11:10:45 MJTM 2.5% 3.2% 101% 1735021 4.24 V
2026-05-07 11:10:45 MJTM 2.5% 3.2% 101% 1735021 4.24 V
2026-05-07 11:10:45 MJTM 2.5% 3.2% 101% 1735021 4.24 V
2026-05-07 11:10:38 MJTM 2.5% 3.2% 101% 1735021 4.24 V
2026-05-07 11:10:36 LMGB 0.06% 0.0% 101% 4377 -0.0 V
2026-05-07 11:10:36 LMGB 0.06% 0.0% 101% 4377 -0.0 V
2026-05-07 11:09:46 PTRH 1.27% 8.5% 56% 942486 3.78 V
2026-05-07 11:09:46 PTRH 1.27% 8.5% 56% 942486 3.78 V
2026-05-07 11:09:33 PTRH 1.27% 8.5% 56% 942486 3.78 V
2026-05-07 11:09:33 PTRH 1.27% 8.5% 56% 942486 3.78 V
2026-05-07 11:09:22 ah03
2026-05-07 11:09:21 ah03
2026-05-07 11:09:20 ah03
2026-05-07 11:09:20 ah03
2026-05-07 11:09:17 ah03
2026-05-07 11:09:17 ah03
2026-05-07 11:09:17 ah03
2026-05-07 11:06:36 IIXF 851.95 hPa 33.21% 24.48°C 229.8 Ohm
2026-05-07 11:06:36 IIXF 851.95 hPa 33.21% 24.48°C 229.8 Ohm
2026-05-07 11:06:18 IIXF 0.69% 0.0% 101% 261441 4.27 V
2026-05-07 11:06:18 IIXF 0.69% 0.0% 101% 261441 4.27 V
2026-05-07 11:06:13 JR70 0.89% 92% 6146258 4.08 V
2026-05-07 11:06:12 JR70 0.89% 92% 6146258 4.08 V
2026-05-07 11:05:35 RX01 0.02% 0.0% 101% 19528 0.0 V
2026-05-07 11:05:35 RX01 0.02% 0.0% 101% 19528 0.0 V
2026-05-07 11:03:37 LMBt 0.25% 1.9% 58% 193346 3.79 V
2026-05-07 11:03:37 LMBt 0.25% 1.9% 58% 193346 3.79 V
2026-05-07 11:03:37 LMBt 0.25% 1.9% 58% 193346 3.79 V
2026-05-07 11:03:37 LMBt 0.25% 1.9% 58% 193346 3.79 V
2026-05-07 11:03:34 LMBt 0.25% 1.9% 58% 193346 3.79 V
2026-05-07 11:03:34 LMBt 0.25% 1.9% 58% 193346 3.79 V
2026-05-07 11:03:30 LMBt 0.25% 1.9% 58% 193346 3.79 V
2026-05-07 11:03:21 MRB1 1.62% 3.0% 98% 152757 4.17 V
2026-05-07 11:03:19 MRB1 1.62% 3.0% 98% 152757 4.17 V
2026-05-07 11:03:19 MRB1 1.62% 3.0% 98% 152757 4.17 V
2026-05-07 11:03:15 MRB1 1.62% 3.0% 98% 152757 4.17 V
2026-05-07 11:03:14 MRB1 1.62% 3.0% 98% 152757 4.17 V
2026-05-07 11:03:14 MRB1 1.62% 3.0% 98% 152757 4.17 V
2026-05-07 11:01:24 LRX1 1.7% 17.8% 82% 132697 4.0 V
2026-05-07 11:01:24 LRX1 1.7% 17.8% 82% 132697 4.0 V
2026-05-07 11:01:23 LRX1 1.7% 17.8% 82% 132697 4.0 V
2026-05-07 11:01:21 LRX1 1.7% 17.8% 82% 132697 4.0 V
2026-05-07 11:01:20 LRX1 1.7% 17.8% 82% 132697 4.0 V
2026-05-07 11:01:13 LRX1 1012.63 hPa 47.05% 23.83°C
2026-05-07 11:01:02 LRX1 1012.63 hPa 47.05% 23.83°C
2026-05-07 11:01:01 LRX1 1012.63 hPa 47.05% 23.83°C
2026-05-07 11:01:00 LRX1 1012.63 hPa 47.05% 23.83°C
2026-05-07 11:00:59 LRX1 1012.63 hPa 47.05% 23.83°C
2026-05-07 11:00:58 RF06 0.42% 10.3% 101% 47258 -0.0 V
2026-05-07 11:00:58 LRX1 1012.63 hPa 47.05% 23.83°C
2026-05-07 11:00:58 LRX1 1012.63 hPa 47.05% 23.83°C
2026-05-07 11:00:55 RF06 0.42% 10.3% 101% 47258 -0.0 V
2026-05-07 11:00:55 RF06 0.42% 10.3% 101% 47258 -0.0 V
2026-05-07 11:00:48 RF06 0.42% 10.3% 101% 47258 -0.0 V
2026-05-07 11:00:47 RF06 0.42% 10.3% 101% 47258 -0.0 V
2026-05-07 11:00:44 RF06 0.42% 10.3% 101% 47258 -0.0 V
2026-05-07 11:00:44 RF06 0.42% 10.3% 101% 47258 -0.0 V
2026-05-07 11:00:44 RF06 0.42% 10.3% 101% 47258 -0.0 V
2026-05-07 10:58:58 RF67 1.07% 4.7% 101% 4566 3.48 V
2026-05-07 10:58:58 RF67 1.07% 4.7% 101% 4566 3.48 V
2026-05-07 10:58:57 RF67 1.07% 4.7% 101% 4566 3.48 V
2026-05-07 10:58:55 RF67 1.07% 4.7% 101% 4566 3.48 V
2026-05-07 10:58:53 RF67 1.07% 4.7% 101% 4566 3.48 V
2026-05-07 10:58:53 RF67 1.07% 4.7% 101% 4566 3.48 V
2026-05-07 10:58:53 RF67 1.07% 4.7% 101% 4566 3.48 V
2026-05-07 10:58:31 976c 0.75% 0.0% 101% 4664200 4.22 V
2026-05-07 10:58:30 976c 0.75% 0.0% 101% 4664200 4.22 V
2026-05-07 10:57:56 MELK 0.08% 0.0% 97% 4417381 4.15 V
2026-05-07 10:57:56 MELK 0.08% 0.0% 97% 4417381 4.15 V
2026-05-07 10:57:55 MELK 0.08% 0.0% 97% 4417381 4.15 V
2026-05-07 10:57:46 MELK 0.08% 0.0% 97% 4417381 4.15 V
2026-05-07 10:55:59 SMWS 0.89% 1.1% 37% 779047 3.6 V
2026-05-07 10:55:59 SMWS 0.89% 1.1% 37% 779047 3.6 V
2026-05-07 10:55:58 SMWS 0.89% 1.1% 37% 779047 3.6 V
2026-05-07 10:55:12 7274 0.43% 2.4% 100% 7778215 4.11 V
2026-05-07 10:55:12 7274 0.43% 2.4% 100% 7778215 4.11 V
2026-05-07 10:55:12 7274 0.43% 2.4% 100% 7778215 4.11 V
2026-05-07 10:53:29 RF02 0.48% 9.1% 101% 1505 4.23 V
2026-05-07 10:53:27 RF02 0.48% 9.1% 101% 1505 4.23 V
2026-05-07 10:53:26 RF02 0.48% 9.1% 101% 1505 4.23 V
2026-05-07 10:53:26 RF02 0.48% 9.1% 101% 1505 4.23 V
2026-05-07 10:53:21 RF02 0.48% 9.1% 101% 1505 4.23 V
2026-05-07 10:53:19 RF02 0.48% 9.1% 101% 1505 4.23 V
2026-05-07 10:53:19 RF02 0.48% 9.1% 101% 1505 4.23 V
2026-05-07 10:53:18 RF02 0.48% 9.1% 101% 1505 4.23 V
2026-05-07 10:52:37 ah01 1.15% 0.0% 94% 41376 4.12 V
2026-05-07 10:52:35 ah01 1.15% 0.0% 94% 41376 4.12 V
2026-05-07 10:51:16 JR70 0.7% 7.9% 87% 6145355 4.04 V
2026-05-07 10:51:15 JR70 0.7% 7.9% 87% 6145355 4.04 V
2026-05-07 10:49:39 HAM2 2.11% 4.2% 92% 1182821 4.08 V
2026-05-07 10:49:39 HAM2 2.11% 4.2% 92% 1182821 4.08 V
2026-05-07 10:49:37 HAM2 2.11% 4.2% 92% 1182821 4.08 V
2026-05-07 10:49:37 HAM2 2.11% 4.2% 92% 1182821 4.08 V
2026-05-07 10:49:37 HAM2 2.11% 4.2% 92% 1182821 4.08 V
2026-05-07 10:49:36 HAM2 2.11% 4.2% 92% 1182821 4.08 V
2026-05-07 10:49:36 HAM2 2.11% 4.2% 92% 1182821 4.08 V
2026-05-07 10:49:36 HAM2 2.11% 4.2% 92% 1182821 4.08 V
2026-05-07 10:48:52 HT77 871.71 hPa 42.06% 34.38°C
2026-05-07 10:48:52 HT77 871.71 hPa 42.06% 34.38°C
2026-05-07 10:48:36 IIXF 852.04 hPa 32.52% 24.16°C 243.69 Ohm
2026-05-07 10:48:36 IIXF 852.04 hPa 32.52% 24.16°C 243.69 Ohm
2026-05-07 10:48:18 IIXF 0.8% 0.0% 101% 260361 4.28 V
2026-05-07 10:48:18 IIXF 0.8% 0.0% 101% 260361 4.28 V
2026-05-07 10:48:17 PcL1 0.1% 0.0% 99% 49137 4.18 V
2026-05-07 10:48:16 PcL1 0.1% 0.0% 99% 49137 4.18 V
2026-05-07 10:47:33 RF03 0.14% 3.2% 48% 46031 3.65 V
2026-05-07 10:47:33 RF03 0.14% 3.2% 48% 46031 3.65 V
2026-05-07 10:47:33 RF03 0.14% 3.2% 48% 46031 3.65 V
2026-05-07 10:47:23 L1 4.31% 10.0% 101% 401205 4.24 V
2026-05-07 10:47:22 L1 4.31% 10.0% 101% 401205 4.24 V
2026-05-07 10:46:43 Aero 1.04% 13.9% 101% 44352 4.19 V
2026-05-07 10:46:43 Aero 1.04% 13.9% 101% 44352 4.19 V
2026-05-07 10:44:58 HT77 0.29% 3.2% 101% 956981 4.29 V
2026-05-07 10:44:58 HT77 0.29% 3.2% 101% 956981 4.29 V
2026-05-07 10:44:12 DJMH 0.4% 0.0% 93% 6466029 4.1 V
2026-05-07 10:44:11 DJMH 0.4% 0.0% 93% 6466029 4.1 V
2026-05-07 10:43:03 Wdst 1.72% 7.9% 72% 4361773 3.92 V
2026-05-07 10:43:03 Wdst 1.72% 7.9% 72% 4361773 3.92 V
2026-05-07 10:43:03 Wdst 1.72% 7.9% 72% 4361773 3.92 V
2026-05-07 10:43:00 2369 1.31% 14.3% 1% 99917 3.13 V
2026-05-07 10:42:59 2369 1.31% 14.3% 1% 99917 3.13 V
2026-05-07 10:42:59 2369 1.31% 14.3% 1% 99917 3.13 V
2026-05-07 10:40:54 MJTM 2.99% 6.8% 101% 1733221 4.24 V
2026-05-07 10:40:54 MJTM 2.99% 6.8% 101% 1733221 4.24 V
2026-05-07 10:37:26 SMWS 1.04% 1.9% 34% 777930 3.58 V
2026-05-07 10:37:26 SMWS 1.04% 1.9% 34% 777930 3.58 V
2026-05-07 10:37:26 SMWS 1.04% 1.9% 34% 777930 3.58 V
2026-05-07 10:36:31 JR70 0.31% 84% 6144452 4.02 V
2026-05-07 10:36:31 JR70 0.31% 84% 6144452 4.02 V
2026-05-07 10:34:36 LMGB 0.06% 0.0% 101% 2217 -0.0 V
2026-05-07 10:34:35 LMGB 0.06% 0.0% 101% 2217 -0.0 V
2026-05-07 10:33:39 21a9 1007.86 hPa 39.94% 22.47°C
2026-05-07 10:33:38 21a9 1007.86 hPa 39.94% 22.47°C
2026-05-07 10:33:38 21a9 1007.86 hPa 39.94% 22.47°C
2026-05-07 10:33:33 PTRH 0.36% 0.0% 54% 940326 3.75 V
2026-05-07 10:33:33 PTRH 0.36% 0.0% 54% 940326 3.75 V
2026-05-07 10:33:11 21a9 1.27% 0.0% 95% 770546 4.12 V
2026-05-07 10:33:10 21a9 1.27% 0.0% 95% 770546 4.12 V
2026-05-07 10:33:09 21a9 1.27% 0.0% 95% 770546 4.12 V
2026-05-07 10:33:09 21a9 1.27% 0.0% 95% 770546 4.12 V
2026-05-07 10:30:49 HT77 871.75 hPa 42.25% 35.15°C
2026-05-07 10:30:49 HT77 871.75 hPa 42.25% 35.15°C
2026-05-07 10:30:36 IIXF 852.13 hPa 32.31% 23.95°C 248.08 Ohm
2026-05-07 10:30:35 IIXF 852.13 hPa 32.31% 23.95°C 248.08 Ohm
2026-05-07 10:30:34 e536 0.14% 2.0% 97% 47552995 4.16 V
2026-05-07 10:30:18 IIXF 0.8% 0.7% 101% 259281 4.27 V
2026-05-07 10:30:17 IIXF 0.8% 0.7% 101% 259281 4.27 V
2026-05-07 10:29:45 Jim1 0.48% 3.9% 92% 6821001 4.09 V
2026-05-07 10:29:45 Jim1 0.48% 3.9% 92% 6821001 4.09 V
2026-05-07 10:29:44 Jim1 0.48% 3.9% 92% 6821001 4.09 V
2026-05-07 10:29:33 RX01 0.02% 0.0% 101% 17366 0.0 V
2026-05-07 10:29:33 RX01 0.02% 0.0% 101% 17366 0.0 V
2026-05-07 10:29:27 RF02 0.08% 14.1% 101% 65 4.23 V
2026-05-07 10:29:26 RF02 0.08% 14.1% 101% 65 4.23 V
2026-05-07 10:29:24 RF02 0.08% 14.1% 101% 65 4.23 V
2026-05-07 10:29:24 RF02 0.08% 14.1% 101% 65 4.23 V
2026-05-07 10:29:21 RF02 0.08% 14.1% 101% 65 4.23 V
2026-05-07 10:29:19 RF02 0.08% 14.1% 101% 65 4.23 V
2026-05-07 10:29:19 RF02 0.08% 14.1% 101% 65 4.23 V
2026-05-07 10:29:19 RF02 0.08% 14.1% 101% 65 4.23 V
2026-05-07 10:29:05 RF67 1.01% 13.7% 101% 2765 3.46 V
2026-05-07 10:29:05 RF67 1.01% 13.7% 101% 2765 3.46 V
2026-05-07 10:28:57 RF67 1.01% 13.7% 101% 2765 3.46 V
2026-05-07 10:28:55 RF67 1.01% 13.7% 101% 2765 3.46 V
2026-05-07 10:28:55 RF67 1.01% 13.7% 101% 2765 3.46 V
2026-05-07 10:28:55 RF67 1.01% 13.7% 101% 2765 3.46 V
2026-05-07 10:28:45 Gert 1.99% 4.1% 101% 325835 4.27 V
2026-05-07 10:28:45 Gert 1.99% 4.1% 101% 325835 4.27 V
2026-05-07 10:28:44 Gert 1.99% 4.1% 101% 325835 4.27 V
2026-05-07 10:28:37 Gert 1.99% 4.1% 101% 325835 4.27 V
2026-05-07 10:28:35 Gert 1.99% 4.1% 101% 325835 4.27 V
2026-05-07 10:28:35 Gert 1.99% 4.1% 101% 325835 4.27 V
2026-05-07 10:28:35 Gert 1.99% 4.1% 101% 325835 4.27 V
2026-05-07 10:28:24 MELK 0.23% 0.0% 97% 4415581 4.16 V
2026-05-07 10:28:24 MELK 0.23% 0.0% 97% 4415581 4.16 V
2026-05-07 10:28:24 MELK 0.23% 0.0% 97% 4415581 4.16 V
2026-05-07 10:28:24 MELK 0.23% 0.0% 97% 4415581 4.16 V
2026-05-07 10:28:10 MELK 0.23% 0.0% 97% 4415581 4.16 V
2026-05-07 10:28:10 MELK 0.23% 0.0% 97% 4415581 4.16 V
2026-05-07 10:28:01 Wdst 1.54% 7.0% 73% 4360872 3.92 V
2026-05-07 10:28:01 Wdst 1.54% 7.0% 73% 4360872 3.92 V
2026-05-07 10:28:01 Wdst 1.54% 7.0% 73% 4360872 3.92 V
2026-05-07 10:27:31 LRX1 1.39% 3.9% 83% 130657 4.01 V
2026-05-07 10:27:31 LRX1 1.39% 3.9% 83% 130657 4.01 V
2026-05-07 10:27:21 LRX1 1.39% 3.9% 83% 130657 4.01 V
2026-05-07 10:27:21 LRX1 1.39% 3.9% 83% 130657 4.01 V
2026-05-07 10:27:21 LRX1 1.39% 3.9% 83% 130657 4.01 V
2026-05-07 10:27:01 LRX1 1012.74 hPa 47.41% 22.91°C
2026-05-07 10:27:01 LRX1 1012.74 hPa 47.41% 22.91°C
2026-05-07 10:26:59 LRX1 1012.74 hPa 47.41% 22.91°C
2026-05-07 10:26:59 LRX1 1012.74 hPa 47.41% 22.91°C
2026-05-07 10:26:57 HT77 0.31% 0.0% 101% 955901 4.29 V
2026-05-07 10:26:57 HT77 0.31% 0.0% 101% 955901 4.29 V
2026-05-07 10:26:56 LRX1 1012.74 hPa 47.41% 22.91°C
2026-05-07 10:26:56 LRX1 1012.74 hPa 47.41% 22.91°C
2026-05-07 10:26:56 LRX1 1012.74 hPa 47.41% 22.91°C
2026-05-07 10:25:39 htec 5.0% 2.3% 101% 59025 4.28 V
2026-05-07 10:25:39 htec 5.0% 2.3% 101% 59025 4.28 V
2026-05-07 10:22:18 BB04 1.58% 2.2% 101% 14402 -0.0 V
2026-05-07 10:22:09 BB04 1.58% 2.2% 101% 14402 -0.0 V
2026-05-07 10:22:09 BB04 1.58% 2.2% 101% 14402 -0.0 V
2026-05-07 10:22:06 BB04 1.58% 2.2% 101% 14402 -0.0 V
2026-05-07 10:22:05 BB04 1.58% 2.2% 101% 14402 -0.0 V
2026-05-07 10:22:05 BB04 1.58% 2.2% 101% 14402 -0.0 V
2026-05-07 10:20:57 JR70 0.34% 79% 6143549 3.98 V
2026-05-07 10:20:57 JR70 0.34% 79% 6143549 3.98 V
2026-05-07 10:19:53 HAM2 2.34% 7.8% 92% 1181021 4.08 V
2026-05-07 10:19:45 HAM2 2.34% 7.8% 92% 1181021 4.08 V
2026-05-07 10:19:41 HAM2 2.34% 7.8% 92% 1181021 4.08 V
2026-05-07 10:19:39 HAM2 2.34% 7.8% 92% 1181021 4.08 V
2026-05-07 10:19:38 HAM2 2.34% 7.8% 92% 1181021 4.08 V
2026-05-07 10:19:34 HAM2 2.34% 7.8% 92% 1181021 4.08 V
2026-05-07 10:19:34 HAM2 2.34% 7.8% 92% 1181021 4.08 V
2026-05-07 10:19:34 HAM2 2.34% 7.8% 92% 1181021 4.08 V
2026-05-07 10:19:12 7274 0.4% 2.4% 100% 7776054 4.11 V
2026-05-07 10:19:11 7274 0.4% 2.4% 100% 7776054 4.11 V
2026-05-07 10:19:11 7274 0.4% 2.4% 100% 7776054 4.11 V
2026-05-07 10:18:48 SMWS 1.01% 0.0% 35% 776789 3.58 V
2026-05-07 10:18:48 SMWS 1.01% 0.0% 35% 776789 3.58 V
2026-05-07 10:17:43 DOS 1.37% 4.2% 101% 260315 4.2 V
2026-05-07 10:17:42 DOS 1.37% 4.2% 101% 260315 4.2 V
2026-05-07 10:17:42 DOS 1.37% 4.2% 101% 260315 4.2 V
2026-05-07 10:17:41 DOS 1.37% 4.2% 101% 260315 4.2 V
2026-05-07 10:17:36 DOS 1.37% 4.2% 101% 260315 4.2 V
2026-05-07 10:17:34 DOS 1.37% 4.2% 101% 260315 4.2 V
2026-05-07 10:17:34 DOS 1.37% 4.2% 101% 260315 4.2 V
2026-05-07 10:17:30 LMBr 2.42% 8.0% 95% 3842857 4.13 V
2026-05-07 10:17:28 LMBr 2.42% 8.0% 95% 3842857 4.13 V
2026-05-07 10:17:28 LMBr 2.42% 8.0% 95% 3842857 4.13 V
2026-05-07 10:17:03 RF06 0.56% 3.2% 101% 44618 -0.0 V
2026-05-07 10:17:01 RLSC 1002.53 hPa 74.6% 18.38°C
2026-05-07 10:17:01 RLSC 1002.53 hPa 74.6% 18.38°C
2026-05-07 10:16:59 RF06 0.56% 3.2% 101% 44618 -0.0 V
2026-05-07 10:16:59 RF06 0.56% 3.2% 101% 44618 -0.0 V
2026-05-07 10:16:50 RF06 0.56% 3.2% 101% 44618 -0.0 V
2026-05-07 10:16:50 RF06 0.56% 3.2% 101% 44618 -0.0 V
2026-05-07 10:16:49 RF06 0.56% 3.2% 101% 44618 -0.0 V
2026-05-07 10:16:44 RF06 0.56% 3.2% 101% 44618 -0.0 V
2026-05-07 10:16:44 RF06 0.56% 3.2% 101% 44618 -0.0 V
2026-05-07 10:16:44 RF06 0.56% 3.2% 101% 44618 -0.0 V
2026-05-07 10:14:09 DJMH 0.44% 0.0% 85% 6464229 4.03 V
2026-05-07 10:14:09 DJMH 0.44% 0.0% 85% 6464229 4.03 V
2026-05-07 10:13:38 LAM2 1.3% 14.0% 101% 8998 4.24 V
2026-05-07 10:13:38 LAM2 1.3% 14.0% 101% 8998 4.24 V
2026-05-07 10:13:38 LAM2 1.3% 14.0% 101% 8998 4.24 V
2026-05-07 10:13:38 LAM2 1.3% 14.0% 101% 8998 4.24 V
2026-05-07 10:13:05 Wdst 1.54% 7.4% 71% 4359972 3.9 V
2026-05-07 10:13:05 Wdst 1.54% 7.4% 71% 4359972 3.9 V
2026-05-07 10:13:05 Wdst 1.54% 7.4% 71% 4359972 3.9 V
2026-05-07 10:12:50 HT77 871.84 hPa 41.8% 35.26°C
2026-05-07 10:12:50 HT77 871.84 hPa 41.8% 35.26°C
2026-05-07 10:12:36 IIXF 852.13 hPa 32.66% 23.85°C 246.78 Ohm
2026-05-07 10:12:35 IIXF 852.13 hPa 32.66% 23.85°C 246.78 Ohm
2026-05-07 10:12:25 ah02 64.83% 20.09°C
2026-05-07 10:12:25 ah02 64.83% 20.09°C
2026-05-07 10:12:24 ah02 64.83% 20.09°C
2026-05-07 10:12:23 ah02 64.83% 20.09°C
2026-05-07 10:12:23 ah02 64.83% 20.09°C
2026-05-07 10:12:18 IIXF 0.77% 0.0% 101% 258201 4.27 V
2026-05-07 10:12:17 IIXF 0.77% 0.0% 101% 258201 4.27 V
2026-05-07 10:12:02 ah02 0.04% 18.7% 70% 61 3.9 V
2026-05-07 10:12:02 ah02 0.04% 18.7% 70% 61 3.9 V
2026-05-07 10:11:58 ah02 0.04% 18.7% 70% 61 3.9 V
2026-05-07 10:11:57 ah02 0.04% 18.7% 70% 61 3.9 V
2026-05-07 10:11:57 ah02 0.04% 18.7% 70% 61 3.9 V
2026-05-07 10:11:57 ah02 0.04% 18.7% 70% 61 3.9 V
2026-05-07 10:11:26 RF01 0.48% 9.0% 99% 76688 4.18 V
2026-05-07 10:11:26 RF01 0.48% 9.0% 99% 76688 4.18 V
2026-05-07 10:11:26 RF01 0.48% 9.0% 99% 76688 4.18 V
2026-05-07 10:10:52 MJTM 2.09% 17.6% 101% 1731420 4.23 V
2026-05-07 10:10:51 MJTM 2.09% 17.6% 101% 1731420 4.23 V
2026-05-07 10:10:49 MJTM 2.09% 17.6% 101% 1731420 4.23 V
2026-05-07 10:10:49 MJTM 2.09% 17.6% 101% 1731420 4.23 V
2026-05-07 10:10:48 MJTM 2.09% 17.6% 101% 1731420 4.23 V
2026-05-07 10:10:37 MJTM 2.09% 17.6% 101% 1731420 4.23 V
2026-05-07 10:08:57 HT77 0.31% 1.9% 101% 954821 4.29 V
2026-05-07 10:08:57 HT77 0.31% 1.9% 101% 954821 4.29 V
2026-05-07 10:06:07 PcL1 0.12% 0.0% 96% 46608 4.14 V
2026-05-07 10:06:07 PcL1 0.12% 0.0% 96% 46608 4.14 V
2026-05-07 10:05:49 JR70 0.33% 83% 6142646 4.01 V
2026-05-07 10:05:49 JR70 0.33% 83% 6142646 4.01 V
2026-05-07 10:05:33 RF03 0.16% 17.5% 49% 43511 3.65 V
2026-05-07 10:05:32 RF03 0.16% 17.5% 49% 43511 3.65 V
2026-05-07 10:05:32 RF03 0.16% 17.5% 49% 43511 3.65 V
2026-05-07 10:05:23 RF67 0.56% 3.4% 101% 1325 3.46 V
2026-05-07 10:04:57 RF67 0.56% 3.4% 101% 1325 3.46 V
2026-05-07 10:04:56 RF67 0.56% 3.4% 101% 1325 3.46 V
2026-05-07 10:04:55 RF67 0.56% 3.4% 101% 1325 3.46 V
2026-05-07 10:04:54 RF67 0.56% 3.4% 101% 1325 3.46 V
2026-05-07 10:04:52 RF67 0.56% 3.4% 101% 1325 3.46 V
2026-05-07 10:04:52 RF67 0.56% 3.4% 101% 1325 3.46 V
2026-05-07 10:04:52 RF67 0.56% 3.4% 101% 1325 3.46 V
2026-05-07 10:03:05 1808 2.66% 3.3% 101% 8632 -0.0 V
2026-05-07 10:03:04 1808 2.66% 3.3% 101% 8632 -0.0 V
2026-05-07 10:00:09 SMWS 1.01% 4.8% 34% 775687 3.57 V
2026-05-07 10:00:09 SMWS 1.01% 4.8% 34% 775687 3.57 V
2026-05-07 10:00:09 SMWS 1.01% 4.8% 34% 775687 3.57 V
2026-05-07 09:58:35 LMGB 0.01% 0.7% 101% 56 -0.0 V
2026-05-07 09:58:35 LMGB 0.01% 0.7% 101% 56 -0.0 V
2026-05-07 09:58:18 976c 0.68% 4.2% 101% 4660588 4.22 V
2026-05-07 09:58:18 976c 0.68% 4.2% 101% 4660588 4.22 V
2026-05-07 09:58:13 Wdst 1.53% 2.2% 73% 4359072 3.92 V
2026-05-07 09:58:12 Wdst 1.53% 2.2% 73% 4359072 3.92 V
2026-05-07 09:58:12 Wdst 1.53% 2.2% 73% 4359072 3.92 V
2026-05-07 09:58:06 PTRH 0.39% 0.0% 52% 938166 3.74 V
2026-05-07 09:58:06 PTRH 0.39% 0.0% 52% 938166 3.74 V
2026-05-07 09:57:33 PTRH 0.39% 0.0% 52% 938166 3.74 V
2026-05-07 09:57:32 PTRH 0.39% 0.0% 52% 938166 3.74 V
2026-05-07 09:54:48 HT77 871.78 hPa 41.52% 35.04°C
2026-05-07 09:54:47 HT77 871.78 hPa 41.52% 35.04°C
2026-05-07 09:54:36 IIXF 852.11 hPa 32.79% 23.65°C 248.45 Ohm
2026-05-07 09:54:36 IIXF 852.11 hPa 32.79% 23.65°C 248.45 Ohm
2026-05-07 09:54:24 LRX1 1.56% 11.1% 84% 128676 4.02 V
2026-05-07 09:54:24 LRX1 1.56% 11.1% 84% 128676 4.02 V
2026-05-07 09:54:23 LRX1 1.56% 11.1% 84% 128676 4.02 V
2026-05-07 09:54:22 LRX1 1.56% 11.1% 84% 128676 4.02 V
2026-05-07 09:54:21 LRX1 1.56% 11.1% 84% 128676 4.02 V
2026-05-07 09:54:21 LRX1 1.56% 11.1% 84% 128676 4.02 V
2026-05-07 09:54:18 IIXF 0.67% 0.0% 101% 257121 4.28 V
2026-05-07 09:54:17 IIXF 0.67% 0.0% 101% 257121 4.28 V
2026-05-07 09:54:10 MRB1 1.93% 10.8% 101% 148613 4.21 V
2026-05-07 09:54:10 MRB1 1.93% 10.8% 101% 148613 4.21 V
2026-05-07 09:54:02 LRX1 1012.72 hPa 51.76% 23.0°C
2026-05-07 09:54:00 LRX1 1012.72 hPa 51.76% 23.0°C
2026-05-07 09:53:59 LRX1 1012.72 hPa 51.76% 23.0°C
2026-05-07 09:53:58 LRX1 1012.72 hPa 51.76% 23.0°C
2026-05-07 09:53:56 LRX1 1012.72 hPa 51.76% 23.0°C
2026-05-07 09:53:56 LRX1 1012.72 hPa 51.76% 23.0°C
2026-05-07 09:53:32 RX01 0.02% 2.3% 101% 15205 0.0 V
2026-05-07 09:53:32 RX01 0.02% 2.3% 101% 15205 0.0 V
2026-05-07 09:52:40 ah01 2.09% 5.0% 94% 37773 4.12 V
2026-05-07 09:52:40 ah01 2.09% 5.0% 94% 37773 4.12 V
2026-05-07 09:52:38 ah01 2.09% 5.0% 94% 37773 4.12 V
2026-05-07 09:52:36 ah01 2.09% 5.0% 94% 37773 4.12 V
2026-05-07 09:52:36 ah01 2.09% 5.0% 94% 37773 4.12 V
2026-05-07 09:52:33 ah01 2.09% 5.0% 94% 37773 4.12 V
2026-05-07 09:52:33 ah01 2.09% 5.0% 94% 37773 4.12 V
2026-05-07 09:52:32 ah01 2.09% 5.0% 94% 37773 4.12 V
2026-05-07 09:52:03 2369 1.46% 6.6% 2% 96856 3.14 V
2026-05-07 09:52:02 2369 1.46% 6.6% 2% 96856 3.14 V
2026-05-07 09:52:02 2369 1.46% 6.6% 2% 96856 3.14 V
2026-05-07 09:52:02 2369 1.46% 6.6% 2% 96856 3.14 V
2026-05-07 09:51:59 2369 1.46% 6.6% 2% 96856 3.14 V
2026-05-07 09:51:59 2369 1.46% 6.6% 2% 96856 3.14 V
2026-05-07 09:51:59 2369 1.46% 6.6% 2% 96856 3.14 V
2026-05-07 09:51:13 JR70 0.28% 81% 6141742 4.0 V
2026-05-07 09:51:13 JR70 0.28% 81% 6141742 4.0 V
2026-05-07 09:50:58 HT77 0.33% 0.0% 101% 953741 4.29 V
2026-05-07 09:50:58 HT77 0.33% 0.0% 101% 953741 4.29 V
2026-05-07 09:49:45 HAM2 2.73% 6.7% 92% 1179221 4.09 V
2026-05-07 09:49:45 HAM2 2.73% 6.7% 92% 1179221 4.09 V
2026-05-07 09:49:36 HAM2 2.73% 6.7% 92% 1179221 4.09 V
2026-05-07 09:49:36 HAM2 2.73% 6.7% 92% 1179221 4.09 V
2026-05-07 09:49:34 HAM2 2.73% 6.7% 92% 1179221 4.09 V
2026-05-07 09:49:34 HAM2 2.73% 6.7% 92% 1179221 4.09 V
2026-05-07 09:49:34 HAM2 2.73% 6.7% 92% 1179221 4.09 V
2026-05-07 09:46:42 Aero 1.11% 19.8% 101% 40752 4.19 V
2026-05-07 09:46:42 Aero 1.11% 19.8% 101% 40752 4.19 V
2026-05-07 09:46:37 MJTM 1.89% 10.1% 101% 1729980 4.22 V
2026-05-07 09:44:53 ah03 0.32% 24.8% 74% 1505660 3.94 V
2026-05-07 09:44:53 ah03 0.32% 24.8% 74% 1505660 3.94 V
2026-05-07 09:44:49 ah03 0.32% 24.8% 74% 1505660 3.94 V
2026-05-07 09:44:48 ah03 0.32% 24.8% 74% 1505660 3.94 V
2026-05-07 09:44:43 ah03 1017.97 hPa 66.48% 19.07°C
2026-05-07 09:44:43 ah03 1017.97 hPa 66.48% 19.07°C
2026-05-07 09:44:41 ah03 1017.97 hPa 66.48% 19.07°C
2026-05-07 09:44:41 ah03 0.32% 24.8% 74% 1505660 3.94 V
2026-05-07 09:44:40 ah03 1017.97 hPa 66.48% 19.07°C
2026-05-07 09:44:40 ah03 1017.97 hPa 66.48% 19.07°C
2026-05-07 09:44:11 DJMH 0.39% 0.0% 86% 6462429 4.03 V
2026-05-07 09:44:11 DJMH 0.39% 0.0% 86% 6462429 4.03 V
2026-05-07 09:44:00 RF67 0.07% 13.5% 101% 65 3.45 V
2026-05-07 09:44:00 RF67 0.07% 13.5% 101% 65 3.45 V
2026-05-07 09:43:58 RF67 0.07% 13.5% 101% 65 3.45 V
2026-05-07 09:43:57 RF67 0.07% 13.5% 101% 65 3.45 V
2026-05-07 09:43:57 RF67 0.07% 13.5% 101% 65 3.45 V
2026-05-07 09:43:56 RF67 0.07% 13.5% 101% 65 3.45 V
2026-05-07 09:43:54 RF67 0.07% 13.5% 101% 65 3.45 V
2026-05-07 09:43:53 RF67 0.07% 13.5% 101% 65 3.45 V
2026-05-07 09:43:53 RF67 0.07% 13.5% 101% 65 3.45 V
2026-05-07 09:43:11 7274 0.37% 2.4% 100% 7773894 4.11 V
2026-05-07 09:43:11 7274 0.37% 2.4% 100% 7773894 4.11 V
2026-05-07 09:43:11 7274 0.37% 2.4% 100% 7773894 4.11 V
2026-05-07 09:43:05 Wdst 1.69% 3.3% 73% 4358172 3.92 V
2026-05-07 09:43:05 Wdst 1.69% 3.3% 73% 4358172 3.92 V
2026-05-07 09:43:05 Wdst 1.69% 3.3% 73% 4358172 3.92 V
2026-05-07 09:41:49 SMWS 1.03% 0.0% 32% 774576 3.55 V
2026-05-07 09:41:48 SMWS 1.03% 0.0% 32% 774576 3.55 V
2026-05-07 09:41:48 SMWS 1.03% 0.0% 32% 774576 3.55 V
2026-05-07 09:40:01 LMGB 0.08% 0.5% 101% 103872 -0.0 V
2026-05-07 09:40:00 LMGB 0.08% 0.5% 101% 103872 -0.0 V
2026-05-07 09:39:59 RF67 0.03% 7.9% 101% 65 3.45 V
2026-05-07 09:39:59 RF67 0.03% 7.9% 101% 65 3.45 V
2026-05-07 09:39:51 RF67 0.03% 7.9% 101% 65 3.45 V
2026-05-07 09:39:48 RF67 0.03% 7.9% 101% 65 3.45 V
2026-05-07 09:39:48 RF67 0.03% 7.9% 101% 65 3.45 V
2026-05-07 09:39:48 RF67 0.03% 7.9% 101% 65 3.45 V
2026-05-07 09:37:32 e536 0.18% 0.0% 94% 47549815 4.11 V
2026-05-07 09:36:58 RF67 0.03% 9.2% 101% 65 3.44 V
2026-05-07 09:36:47 HT77 871.8 hPa 40.96% 34.42°C
2026-05-07 09:36:47 HT77 871.8 hPa 40.96% 34.42°C
2026-05-07 09:36:36 IIXF 852.0 hPa 33.01% 23.37°C 251.47 Ohm
2026-05-07 09:36:35 IIXF 852.0 hPa 33.01% 23.37°C 251.47 Ohm
2026-05-07 09:36:18 IIXF 0.64% 0.0% 101% 256041 4.28 V
2026-05-07 09:36:17 IIXF 0.64% 0.0% 101% 256041 4.28 V
2026-05-07 09:36:08 RF67 0.03% 9.2% 101% 65 3.44 V
2026-05-07 09:36:08 RF67 0.03% 9.2% 101% 65 3.44 V
2026-05-07 09:36:03 RF67 0.03% 9.2% 101% 65 3.44 V
2026-05-07 09:36:01 RF67 0.03% 9.2% 101% 65 3.44 V
2026-05-07 09:36:00 RF67 0.03% 9.2% 101% 65 3.44 V
2026-05-07 09:36:00 RF67 0.03% 9.2% 101% 65 3.44 V
2026-05-07 09:35:47 JR70 0.27% 2.8% 81% 6140839 4.0 V
2026-05-07 09:35:47 JR70 0.27% 2.8% 81% 6140839 4.0 V
2026-05-07 09:34:49 RF06 0.66% 3.9% 101% 42098 6.31 V
2026-05-07 09:34:48 RF06 0.66% 3.9% 101% 42098 6.31 V
2026-05-07 09:34:48 RF06 0.66% 3.9% 101% 42098 6.31 V
2026-05-07 09:34:46 RF06 0.66% 3.9% 101% 42098 6.31 V
2026-05-07 09:34:44 RF06 0.66% 3.9% 101% 42098 6.31 V
2026-05-07 09:34:44 RF06 0.66% 3.9% 101% 42098 6.31 V
2026-05-07 09:34:44 RF06 0.66% 3.9% 101% 42098 6.31 V
2026-05-07 09:33:02 21a9 1.27% 3.4% 94% 766946 4.12 V
2026-05-07 09:33:01 21a9 1.27% 3.4% 94% 766946 4.12 V
2026-05-07 09:33:00 21a9 1.27% 3.4% 94% 766946 4.12 V
2026-05-07 09:33:00 21a9 1.27% 3.4% 94% 766946 4.12 V
2026-05-07 09:32:57 HT77 0.29% 0.0% 101% 952661 4.29 V
2026-05-07 09:32:57 HT77 0.29% 0.0% 101% 952661 4.29 V
2026-05-07 09:32:15 RF67 0.05% 8.9% 101% 65 3.45 V
2026-05-07 09:32:15 RF67 0.05% 8.9% 101% 65 3.45 V
2026-05-07 09:32:14 RF67 0.05% 8.9% 101% 65 3.45 V
2026-05-07 09:28:30 Wdst 1.7% 3.9% 72% 4357271 3.91 V
2026-05-07 09:28:30 Wdst 1.7% 3.9% 72% 4357271 3.91 V
2026-05-07 09:28:30 Wdst 1.7% 3.9% 72% 4357271 3.91 V
2026-05-07 09:28:08 RF67 0.05% 19.0% 101% 65 3.45 V
2026-05-07 09:28:08 RF67 0.05% 19.0% 101% 65 3.45 V
2026-05-07 09:28:02 RF67 0.05% 19.0% 101% 65 3.45 V
2026-05-07 09:28:00 RF67 0.05% 19.0% 101% 65 3.45 V
2026-05-07 09:27:59 RF67 0.05% 19.0% 101% 65 3.45 V
2026-05-07 09:27:59 RF67 0.05% 19.0% 101% 65 3.45 V
2026-05-07 09:27:49 MELK 0.15% 0.0% 98% 4411981 4.17 V
2026-05-07 09:27:49 MELK 0.15% 0.0% 98% 4411981 4.17 V
2026-05-07 09:27:47 MELK 0.15% 0.0% 98% 4411981 4.17 V
2026-05-07 09:27:46 MELK 0.15% 0.0% 98% 4411981 4.17 V
2026-05-07 09:27:45 MELK 0.15% 0.0% 98% 4411981 4.17 V
2026-05-07 09:27:45 MELK 0.15% 0.0% 98% 4411981 4.17 V
2026-05-07 09:26:38 RF03 0.15% 2.3% 49% 41170 3.66 V
2026-05-07 09:26:37 RF03 0.15% 2.3% 49% 41170 3.66 V
2026-05-07 09:26:33 RF03 0.15% 2.3% 49% 41170 3.66 V
2026-05-07 09:26:32 RF03 0.15% 2.3% 49% 41170 3.66 V
2026-05-07 09:26:32 RF03 0.15% 2.3% 49% 41170 3.66 V
2026-05-07 09:24:34 ZS1G 0.05% 14.9% 101% 46 4.22 V
2026-05-07 09:24:34 ZS1G 0.05% 14.9% 101% 46 4.22 V
2026-05-07 09:24:16 RF67 0.03% 10.7% 101% 65 3.44 V
2026-05-07 09:24:15 RF67 0.03% 10.7% 101% 65 3.44 V
2026-05-07 09:24:15 RF67 0.03% 10.7% 101% 65 3.44 V
2026-05-07 09:23:59 PcL1 0.12% 0.0% 101% 44079 4.22 V
2026-05-07 09:23:58 PcL1 0.12% 0.0% 101% 44079 4.22 V
2026-05-07 09:23:13 SMWS 1.0% 3.3% 28% 773445 3.52 V
2026-05-07 09:23:13 SMWS 1.0% 3.3% 28% 773445 3.52 V
2026-05-07 09:22:25 ah03
2026-05-07 09:22:24 ah03
2026-05-07 09:22:19 ah03
2026-05-07 09:22:18 ah03
2026-05-07 09:22:17 ah03
2026-05-07 09:22:17 ah03
2026-05-07 09:21:47 LMBs 21.87°C
2026-05-07 09:21:47 LMBs 21.87°C
2026-05-07 09:21:37 LRX1 1.4% 20.9% 86% 126696 4.03 V
2026-05-07 09:21:37 LRX1 1.4% 20.9% 86% 126696 4.03 V
2026-05-07 09:21:32 PTRH 0.34% 1.9% 58% 936006 3.78 V
2026-05-07 09:21:32 PTRH 0.34% 1.9% 58% 936006 3.78 V
2026-05-07 09:21:30 LRX1 1.4% 20.9% 86% 126696 4.03 V
2026-05-07 09:21:29 LRX1 1.4% 20.9% 86% 126696 4.03 V
2026-05-07 09:21:29 LRX1 1.4% 20.9% 86% 126696 4.03 V
2026-05-07 09:21:25 LRX1 1.4% 20.9% 86% 126696 4.03 V
2026-05-07 09:21:23 LRX1 1.4% 20.9% 86% 126696 4.03 V
2026-05-07 09:21:23 LRX1 1.4% 20.9% 86% 126696 4.03 V
2026-05-07 09:21:03 LRX1 1012.67 hPa 55.68% 22.39°C
2026-05-07 09:21:01 LRX1 1012.67 hPa 55.68% 22.39°C
2026-05-07 09:20:59 LRX1 1012.67 hPa 55.68% 22.39°C
2026-05-07 09:20:56 LRX1 1012.67 hPa 55.68% 22.39°C
2026-05-07 09:20:54 LRX1 1012.67 hPa 55.68% 22.39°C
2026-05-07 09:20:48 JR70 0.22% 86% 6139936 4.03 V
2026-05-07 09:20:48 JR70 0.22% 86% 6139936 4.03 V
2026-05-07 09:20:33 RF67 0.07% 14.1% 101% 65 3.44 V
2026-05-07 09:20:30 RF67 0.07% 14.1% 101% 65 3.44 V
2026-05-07 09:20:30 RF67 0.07% 14.1% 101% 65 3.44 V
2026-05-07 09:20:28 RF67 0.07% 14.1% 101% 65 3.44 V
2026-05-07 09:20:28 RF67 0.07% 14.1% 101% 65 3.44 V
2026-05-07 09:20:28 RF67 0.07% 14.1% 101% 65 3.44 V
2026-05-07 09:19:38 HAM2 2.32% 11.2% 91% 1177421 4.07 V
2026-05-07 09:19:37 HAM2 2.32% 11.2% 91% 1177421 4.07 V
2026-05-07 09:19:37 HAM2 2.32% 11.2% 91% 1177421 4.07 V
2026-05-07 09:19:36 HAM2 2.32% 11.2% 91% 1177421 4.07 V
2026-05-07 09:19:36 HAM2 2.32% 11.2% 91% 1177421 4.07 V
2026-05-07 09:19:36 HAM2 2.32% 11.2% 91% 1177421 4.07 V
2026-05-07 09:19:31 ah01 2.26% 3.0% 95% 35791 4.12 V
2026-05-07 09:19:30 ah01 2.26% 3.0% 95% 35791 4.12 V
2026-05-07 09:19:30 ah01 2.26% 3.0% 95% 35791 4.12 V
2026-05-07 09:19:30 ah01 2.26% 3.0% 95% 35791 4.12 V
2026-05-07 09:19:26 ah01 2.26% 3.0% 95% 35791 4.12 V
2026-05-07 09:19:24 ah01 2.26% 3.0% 95% 35791 4.12 V
2026-05-07 09:19:24 ah01 2.26% 3.0% 95% 35791 4.12 V
2026-05-07 09:18:47 HT77 871.6 hPa 40.95% 33.04°C
2026-05-07 09:18:47 HT77 871.6 hPa 40.95% 33.04°C
2026-05-07 09:18:35 IIXF 851.93 hPa 34.01% 22.99°C 253.59 Ohm
2026-05-07 09:18:35 IIXF 851.93 hPa 34.01% 22.99°C 253.59 Ohm
2026-05-07 09:18:18 IIXF 0.68% 0.0% 101% 254961 4.27 V
2026-05-07 09:18:17 IIXF 0.68% 0.0% 101% 254961 4.27 V
2026-05-07 09:17:46 DOS 2.3% 8.7% 101% 256714 4.22 V
2026-05-07 09:17:38 DOS 2.3% 8.7% 101% 256714 4.22 V
2026-05-07 09:17:35 DOS 2.3% 8.7% 101% 256714 4.22 V
2026-05-07 09:17:34 DOS 2.3% 8.7% 101% 256714 4.22 V
2026-05-07 09:17:33 DOS 2.3% 8.7% 101% 256714 4.22 V
2026-05-07 09:17:33 DOS 2.3% 8.7% 101% 256714 4.22 V
2026-05-07 09:17:30 RX01 0.04% 0.0% 101% 13043 0.0 V
2026-05-07 09:17:30 RX01 0.04% 0.0% 101% 13043 0.0 V
2026-05-07 09:16:48 RF67 0.03% 7.4% 101% 65 3.44 V
2026-05-07 09:16:47 RF67 0.03% 7.4% 101% 65 3.44 V
2026-05-07 09:16:47 RF67 0.03% 7.4% 101% 65 3.44 V
2026-05-07 09:16:46 RF67 0.03% 7.4% 101% 65 3.44 V
2026-05-07 09:16:42 RF67 0.03% 7.4% 101% 65 3.44 V
2026-05-07 09:16:41 RF67 0.03% 7.4% 101% 65 3.44 V
2026-05-07 09:16:41 RF67 0.03% 7.4% 101% 65 3.44 V
2026-05-07 09:14:59 HT77 0.29% 2.1% 101% 951581 4.29 V
2026-05-07 09:14:59 HT77 0.29% 2.1% 101% 951581 4.29 V
2026-05-07 09:14:08 DJMH 0.44% 0.0% 86% 6460629 4.03 V
2026-05-07 09:14:08 DJMH 0.44% 0.0% 86% 6460629 4.03 V
2026-05-07 09:14:00 RLSC 1002.6 hPa 75.93% 16.4°C
2026-05-07 09:14:00 RLSC 1002.6 hPa 75.93% 16.4°C
2026-05-07 09:13:27 2369 1.15% 8.8% 2% 94456 3.15 V
2026-05-07 09:13:04 Wdst 1.76% 5.6% 72% 4356371 3.92 V
2026-05-07 09:13:04 Wdst 1.76% 5.6% 72% 4356371 3.92 V
2026-05-07 09:13:04 Wdst 1.76% 5.6% 72% 4356371 3.92 V
2026-05-07 09:12:59 RF67 0.05% 10.3% 101% 65 3.44 V
2026-05-07 09:12:59 RF67 0.05% 10.3% 101% 65 3.44 V
2026-05-07 09:12:58 RF67 0.05% 10.3% 101% 65 3.44 V
2026-05-07 09:12:56 RF67 0.05% 10.3% 101% 65 3.44 V
2026-05-07 09:12:55 RF67 0.05% 10.3% 101% 65 3.44 V
2026-05-07 09:12:55 RF67 0.05% 10.3% 101% 65 3.44 V
2026-05-07 09:12:04 2369 1.15% 8.8% 2% 94456 3.15 V
Visit MeshInfo-Lite on Github. Also visit the original MeshInfo by Kevin Elliott.